createdAt,value
2023-02-07T00:00:09.530Z,5.72
2023-02-07T00:01:14.652Z,5.65
2023-02-07T00:02:16.286Z,9.52
2023-02-07T00:03:17.841Z,5.00
2023-02-07T00:04:19.428Z,7.63
2023-02-07T00:05:21.020Z,5.88
2023-02-07T00:06:25.987Z,6.15
2023-02-07T00:07:27.927Z,10.82
2023-02-07T00:08:29.466Z,13.10
2023-02-07T00:09:30.998Z,31.35
2023-02-07T00:10:33.493Z,61.50
2023-02-07T00:11:36.629Z,28.83
2023-02-07T00:12:38.296Z,11.27
2023-02-07T00:13:39.866Z,7.53
2023-02-07T00:14:41.457Z,7.45
2023-02-07T00:15:43.069Z,7.80
2023-02-07T00:16:44.739Z,7.25
2023-02-07T00:17:46.488Z,7.03
2023-02-07T00:18:48.652Z,4.90
2023-02-07T00:19:50.189Z,5.68
2023-02-07T00:21:02.695Z,6.15
2023-02-07T00:22:04.219Z,6.57
2023-02-07T00:23:05.768Z,5.75
2023-02-07T00:24:07.731Z,6.63
2023-02-07T00:25:10.089Z,4.20
2023-02-07T00:26:13.269Z,5.00
2023-02-07T00:27:14.908Z,6.03
2023-02-07T00:28:16.530Z,5.72
2023-02-07T00:29:20.909Z,4.63
2023-02-07T00:30:22.447Z,4.00
2023-02-07T00:31:34.974Z,6.55
2023-02-07T00:32:36.609Z,6.22
2023-02-07T00:33:40.022Z,6.20
2023-02-07T00:34:42.124Z,6.50
2023-02-07T00:35:43.908Z,6.40
2023-02-07T00:36:45.740Z,6.88
2023-02-07T00:37:47.312Z,7.28
2023-02-07T00:38:49.489Z,5.72
2023-02-07T00:39:51.035Z,4.57
2023-02-07T00:40:52.579Z,6.20
2023-02-07T00:41:54.769Z,8.18
2023-02-07T00:42:56.311Z,4.53
2023-02-07T00:43:57.995Z,5.13
2023-02-07T00:44:59.593Z,5.43
2023-02-07T00:46:03.202Z,5.70
2023-02-07T00:47:04.887Z,4.53
2023-02-07T00:48:06.464Z,4.95
2023-02-07T00:49:08.288Z,5.38
2023-02-07T00:50:09.920Z,4.22
2023-02-07T00:51:13.719Z,4.15
2023-02-07T00:52:15.297Z,3.85
2023-02-07T00:53:16.961Z,5.22
2023-02-07T00:54:19.086Z,4.85
2023-02-07T00:55:20.720Z,4.32
2023-02-07T00:56:23.945Z,3.92
2023-02-07T00:57:25.488Z,3.65
2023-02-07T00:58:27.040Z,3.05
2023-02-07T00:59:28.608Z,3.42
2023-02-07T01:00:30.388Z,6.78
2023-02-07T01:01:32.250Z,3.75
2023-02-07T01:02:33.869Z,4.18
2023-02-07T01:03:35.705Z,4.32
2023-02-07T01:04:38.437Z,4.43
2023-02-07T01:05:40.648Z,4.47
2023-02-07T01:06:42.184Z,3.88
2023-02-07T01:07:43.811Z,5.03
2023-02-07T01:08:45.471Z,6.38
2023-02-07T01:09:47.013Z,4.78
2023-02-07T01:10:49.034Z,5.10
2023-02-07T01:11:50.583Z,5.25
2023-02-07T01:12:53.082Z,6.18
2023-02-07T01:13:54.817Z,6.22
2023-02-07T01:14:56.390Z,5.43
2023-02-07T01:15:58.087Z,5.93
2023-02-07T01:16:59.724Z,3.47
2023-02-07T01:18:01.358Z,6.03
2023-02-07T01:19:08.572Z,5.15
2023-02-07T01:20:10.893Z,4.15
2023-02-07T01:21:17.480Z,4.55
2023-02-07T01:22:19.005Z,5.40
2023-02-07T01:23:20.703Z,5.45
2023-02-07T01:24:22.225Z,8.05
2023-02-07T01:25:24.051Z,6.25
2023-02-07T01:26:26.538Z,6.70
2023-02-07T01:27:28.151Z,6.70
2023-02-07T01:28:29.848Z,5.50
2023-02-07T01:29:31.409Z,6.82
2023-02-07T01:30:33.131Z,9.25
2023-02-07T01:31:34.942Z,5.95
2023-02-07T01:32:36.534Z,6.30
2023-02-07T01:33:38.715Z,6.47
2023-02-07T01:34:40.430Z,7.57
2023-02-07T01:35:42.327Z,6.40
2023-02-07T01:36:43.853Z,7.07
2023-02-07T01:37:45.423Z,6.20
2023-02-07T01:38:47.064Z,7.78
2023-02-07T01:39:48.609Z,6.43
2023-02-07T01:40:50.164Z,8.82
2023-02-07T01:41:51.695Z,9.00
2023-02-07T01:42:53.238Z,9.35
2023-02-07T01:43:59.875Z,9.98
2023-02-07T01:45:24.755Z,6.72
2023-02-07T01:46:27.934Z,7.00
2023-02-07T01:47:30.459Z,7.78
2023-02-07T01:48:35.831Z,6.88
2023-02-07T01:49:37.777Z,5.93
2023-02-07T01:50:42.347Z,6.45
2023-02-07T01:51:52.200Z,6.45
2023-02-07T01:52:54.479Z,8.27
2023-02-07T01:54:00.777Z,7.70
2023-02-07T01:55:09.071Z,6.47
2023-02-07T01:56:20.136Z,5.05
2023-02-07T01:57:31.287Z,9.77
2023-02-07T01:58:34.270Z,6.18
2023-02-07T01:59:39.090Z,6.38
2023-02-07T02:00:40.960Z,9.75
2023-02-07T02:01:44.143Z,7.80
2023-02-07T02:02:46.217Z,7.05
2023-02-07T02:03:50.668Z,9.88
2023-02-07T02:04:54.314Z,8.63
2023-02-07T02:05:56.835Z,9.85
2023-02-07T02:06:58.442Z,13.73
2023-02-07T02:08:00.066Z,7.10
2023-02-07T02:09:07.933Z,10.27
2023-02-07T02:10:17.893Z,7.45
2023-02-07T02:11:31.532Z,9.73
2023-02-07T02:12:35.784Z,8.00
2023-02-07T02:14:01.409Z,7.05
2023-02-07T02:15:21.617Z,7.10
2023-02-07T02:16:34.845Z,7.47
2023-02-07T02:18:01.799Z,7.53
2023-02-07T02:19:35.447Z,5.53
2023-02-07T02:21:21.543Z,7.20
2023-02-07T02:22:43.343Z,5.18
2023-02-07T02:23:53.970Z,6.93
2023-02-07T02:25:32.948Z,5.28
2023-02-07T02:26:54.211Z,6.68
2023-02-07T02:28:32.948Z,7.22
2023-02-07T02:29:56.332Z,4.85
2023-02-07T02:31:22.936Z,4.57
2023-02-07T02:32:52.523Z,4.93
2023-02-07T02:33:59.790Z,5.03
2023-02-07T02:35:04.134Z,6.22
2023-02-07T02:36:23.898Z,6.32
2023-02-07T02:37:31.350Z,6.28
2023-02-07T02:38:40.096Z,4.03
2023-02-07T02:39:51.967Z,6.22
2023-02-07T02:41:11.816Z,5.57
2023-02-07T02:42:16.172Z,5.72
2023-02-07T02:43:40.945Z,5.88
2023-02-07T02:44:52.425Z,5.97
2023-02-07T02:46:07.101Z,4.47
2023-02-07T02:47:10.314Z,4.75
2023-02-07T02:48:12.616Z,3.88
2023-02-07T02:49:16.412Z,5.90
2023-02-07T02:50:22.305Z,5.75
2023-02-07T02:51:23.907Z,6.50
2023-02-07T02:52:44.673Z,7.57
2023-02-07T02:53:54.753Z,6.25
2023-02-07T02:54:56.381Z,4.88
2023-02-07T02:56:14.906Z,10.65
2023-02-07T02:57:22.213Z,4.93
2023-02-07T02:58:49.260Z,6.03
2023-02-07T03:00:11.459Z,4.35
2023-02-07T03:01:23.783Z,6.03
2023-02-07T03:02:57.263Z,7.40
2023-02-07T03:04:28.599Z,9.75
2023-02-07T03:05:39.302Z,5.05
2023-02-07T03:07:06.721Z,5.43
2023-02-07T03:08:08.243Z,7.63
2023-02-07T03:09:23.904Z,10.88
2023-02-07T03:10:44.154Z,6.30
2023-02-07T03:11:57.522Z,6.50
2023-02-07T03:13:19.735Z,6.03
2023-02-07T03:14:43.710Z,7.18
2023-02-07T03:15:45.273Z,6.20
2023-02-07T03:16:46.766Z,7.53
2023-02-07T03:17:57.241Z,6.95
2023-02-07T03:19:08.855Z,6.53
2023-02-07T03:20:30.904Z,7.95
2023-02-07T03:21:54.194Z,4.93
2023-02-07T03:22:59.035Z,6.70
2023-02-07T03:24:03.976Z,6.00
2023-02-07T03:25:06.645Z,3.95
2023-02-07T03:26:09.305Z,5.32
2023-02-07T03:27:15.750Z,4.75
2023-02-07T03:28:19.642Z,3.60
2023-02-07T03:29:23.821Z,3.85
2023-02-07T03:30:30.696Z,7.95
2023-02-07T03:31:36.557Z,4.35
2023-02-07T03:32:42.165Z,3.95
2023-02-07T03:33:47.684Z,5.28
2023-02-07T03:35:05.242Z,4.47
2023-02-07T03:36:22.302Z,6.50
2023-02-07T03:37:29.720Z,8.32
2023-02-07T03:38:31.355Z,8.07
2023-02-07T03:39:33.879Z,7.05
2023-02-07T03:40:47.750Z,4.90
2023-02-07T03:41:55.770Z,5.90
2023-02-07T03:43:06.620Z,5.72
2023-02-07T03:44:11.028Z,5.60
2023-02-07T03:45:17.465Z,5.35
2023-02-07T03:46:19.477Z,6.95
2023-02-07T03:47:21.097Z,4.32
2023-02-07T03:48:22.927Z,4.05
2023-02-07T03:49:24.495Z,5.78
2023-02-07T03:50:26.053Z,4.75
2023-02-07T03:51:27.607Z,3.97
2023-02-07T03:52:29.187Z,4.60
2023-02-07T03:53:30.708Z,5.47
2023-02-07T03:54:32.226Z,4.22
2023-02-07T03:55:34.192Z,4.80
2023-02-07T03:56:36.647Z,4.55
2023-02-07T03:57:38.357Z,6.80
2023-02-07T03:58:39.877Z,6.22
2023-02-07T03:59:41.431Z,8.75
2023-02-07T04:00:43.060Z,8.57
2023-02-07T04:01:44.720Z,4.88
2023-02-07T04:02:46.321Z,7.88
2023-02-07T04:03:47.843Z,8.13
2023-02-07T04:04:49.775Z,6.80
2023-02-07T04:05:51.672Z,7.28
2023-02-07T04:06:53.270Z,8.43
2023-02-07T04:07:54.940Z,6.50
2023-02-07T04:08:56.515Z,7.88
2023-02-07T04:09:58.076Z,6.90
2023-02-07T04:11:01.131Z,6.13
2023-02-07T04:12:03.119Z,6.90
2023-02-07T04:13:04.675Z,8.90
2023-02-07T04:14:06.471Z,8.10
2023-02-07T04:15:08.677Z,8.05
2023-02-07T04:16:10.359Z,9.15
2023-02-07T04:17:12.012Z,9.35
2023-02-07T04:18:13.607Z,8.32
2023-02-07T04:19:16.241Z,8.18
2023-02-07T04:20:17.905Z,9.18
2023-02-07T04:21:19.561Z,8.40
2023-02-07T04:22:21.200Z,9.32
2023-02-07T04:23:22.738Z,7.60
2023-02-07T04:24:24.360Z,10.00
2023-02-07T04:25:25.898Z,10.93
2023-02-07T04:26:27.422Z,9.23
2023-02-07T04:27:29.078Z,8.52
2023-02-07T04:28:30.780Z,7.95
2023-02-07T04:29:32.355Z,9.57
2023-02-07T04:30:34.003Z,8.60
2023-02-07T04:31:37.641Z,6.38
2023-02-07T04:32:39.303Z,8.18
2023-02-07T04:33:40.903Z,7.28
2023-02-07T04:34:42.406Z,7.22
2023-02-07T04:35:43.997Z,8.63
2023-02-07T04:36:45.567Z,8.40
2023-02-07T04:37:47.146Z,11.38
2023-02-07T04:38:48.811Z,9.75
2023-02-07T04:39:50.426Z,12.27
2023-02-07T04:40:52.409Z,9.48
2023-02-07T04:41:54.074Z,9.23
2023-02-07T04:42:55.606Z,47.17
2023-02-07T04:43:57.149Z,11.77
2023-02-07T04:44:58.782Z,11.38
2023-02-07T04:46:00.834Z,12.77
2023-02-07T04:47:02.476Z,14.48
2023-02-07T04:48:04.254Z,13.23
2023-02-07T04:49:05.827Z,14.82
2023-02-07T04:50:07.649Z,12.75
2023-02-07T04:51:09.194Z,13.13
2023-02-07T04:52:10.792Z,15.10
2023-02-07T04:53:12.503Z,15.35
2023-02-07T04:54:14.106Z,14.55
2023-02-07T04:55:15.708Z,14.82
2023-02-07T04:56:17.465Z,14.82
2023-02-07T04:57:18.987Z,16.00
2023-02-07T04:58:21.867Z,13.45
2023-02-07T04:59:23.402Z,15.07
2023-02-07T05:00:24.950Z,10.93
2023-02-07T05:01:26.542Z,14.30
2023-02-07T05:02:28.126Z,14.18
2023-02-07T05:03:29.719Z,11.93
2023-02-07T05:04:31.287Z,14.85
2023-02-07T05:05:33.036Z,12.02
2023-02-07T05:06:34.662Z,13.48
2023-02-07T05:07:36.518Z,8.10
2023-02-07T05:08:38.079Z,8.15
2023-02-07T05:09:39.687Z,8.70
2023-02-07T05:10:41.666Z,9.45
2023-02-07T05:11:43.208Z,10.18
2023-02-07T05:12:44.870Z,9.30
2023-02-07T05:13:46.438Z,8.50
2023-02-07T05:14:48.024Z,8.18
2023-02-07T05:15:50.032Z,5.25
2023-02-07T05:16:51.613Z,3.85
2023-02-07T05:17:53.662Z,5.28
2023-02-07T05:18:55.300Z,7.35
2023-02-07T05:19:58.543Z,5.45
2023-02-07T05:21:00.252Z,7.57
2023-02-07T05:22:01.833Z,7.95
2023-02-07T05:23:03.408Z,7.25
2023-02-07T05:24:05.118Z,11.40
2023-02-07T05:25:06.756Z,8.07
2023-02-07T05:26:08.606Z,10.50
2023-02-07T05:27:10.585Z,8.57
2023-02-07T05:28:12.227Z,9.23
2023-02-07T05:29:13.815Z,10.45
2023-02-07T05:30:15.468Z,7.35
2023-02-07T05:31:17.236Z,7.60
2023-02-07T05:32:37.637Z,6.15
2023-02-07T05:33:39.224Z,7.45
2023-02-07T05:34:40.779Z,9.43
2023-02-07T05:35:44.749Z,9.30
2023-02-07T05:36:46.343Z,9.95
2023-02-07T05:37:48.252Z,9.48
2023-02-07T05:38:49.774Z,9.05
2023-02-07T05:39:51.344Z,9.25
2023-02-07T05:40:52.874Z,7.40
2023-02-07T05:41:54.447Z,7.05
2023-02-07T05:42:55.975Z,7.75
2023-02-07T05:43:57.515Z,8.75
2023-02-07T05:44:59.138Z,8.63
2023-02-07T05:46:00.712Z,8.57
2023-02-07T05:47:02.270Z,8.35
2023-02-07T05:48:04.434Z,7.38
2023-02-07T05:49:06.055Z,9.25
2023-02-07T05:50:07.931Z,7.10
2023-02-07T05:51:09.540Z,7.93
2023-02-07T05:52:11.130Z,9.20
2023-02-07T05:53:13.059Z,6.75
2023-02-07T05:54:14.629Z,9.35
2023-02-07T05:55:16.371Z,6.07
2023-02-07T05:56:17.931Z,10.15
2023-02-07T05:57:19.498Z,7.75
2023-02-07T05:58:21.023Z,8.77
2023-02-07T05:59:22.709Z,8.73
2023-02-07T06:00:24.720Z,12.93
2023-02-07T06:01:26.405Z,9.05
2023-02-07T06:02:28.035Z,7.93
2023-02-07T06:03:29.699Z,6.63
2023-02-07T06:04:31.376Z,7.57
2023-02-07T06:05:33.854Z,6.43
2023-02-07T06:06:36.031Z,5.07
2023-02-07T06:07:37.726Z,7.68
2023-02-07T06:08:39.264Z,6.43
2023-02-07T06:09:40.818Z,6.75
2023-02-07T06:10:42.382Z,6.90
2023-02-07T06:11:43.968Z,9.10
2023-02-07T06:12:45.670Z,7.20
2023-02-07T06:13:47.254Z,9.32
2023-02-07T06:14:49.061Z,10.13
2023-02-07T06:15:50.647Z,9.88
2023-02-07T06:16:52.207Z,8.00
2023-02-07T06:17:53.774Z,14.43
2023-02-07T06:18:55.386Z,10.45
2023-02-07T06:19:56.903Z,13.75
2023-02-07T06:20:58.426Z,14.63
2023-02-07T06:22:00.137Z,18.65
2023-02-07T06:23:01.690Z,21.05
2023-02-07T06:24:03.279Z,19.85
2023-02-07T06:25:05.074Z,22.48
2023-02-07T06:26:06.777Z,25.27
2023-02-07T06:27:08.492Z,22.35
2023-02-07T06:28:10.110Z,19.50
2023-02-07T06:29:11.651Z,21.55
2023-02-07T06:30:13.516Z,22.05
2023-02-07T06:31:15.414Z,18.65
2023-02-07T06:32:17.186Z,16.95
2023-02-07T06:33:19.338Z,16.13
2023-02-07T06:34:20.933Z,16.92
2023-02-07T06:35:22.694Z,17.92
2023-02-07T06:36:24.287Z,17.63
2023-02-07T06:37:25.897Z,14.38
2023-02-07T06:38:27.428Z,15.30
2023-02-07T06:39:28.977Z,21.48
2023-02-07T06:40:30.628Z,15.57
2023-02-07T06:41:32.187Z,15.20
2023-02-07T06:42:33.837Z,15.55
2023-02-07T06:43:35.346Z,20.23
2023-02-07T06:44:36.867Z,16.95
2023-02-07T06:45:38.661Z,18.45
2023-02-07T06:46:40.423Z,16.17
2023-02-07T06:47:42.002Z,15.85
2023-02-07T06:48:43.607Z,21.23
2023-02-07T06:49:45.154Z,21.05
2023-02-07T06:50:50.624Z,22.85
2023-02-07T06:51:52.136Z,32.13
2023-02-07T06:52:53.740Z,21.48
2023-02-07T06:53:58.246Z,23.88
2023-02-07T06:55:00.091Z,25.48
2023-02-07T06:56:01.657Z,26.13
2023-02-07T06:57:03.514Z,22.13
2023-02-07T06:58:06.540Z,23.30
2023-02-07T06:59:08.141Z,21.55
2023-02-07T07:00:10.401Z,23.05
2023-02-07T07:01:12.104Z,19.17
2023-02-07T07:02:14.170Z,19.65
2023-02-07T07:03:17.238Z,14.23
2023-02-07T07:04:18.853Z,13.52
2023-02-07T07:05:20.656Z,15.15
2023-02-07T07:06:22.379Z,12.52
2023-02-07T07:07:23.969Z,15.07
2023-02-07T07:08:26.789Z,12.43
2023-02-07T07:09:28.440Z,12.38
2023-02-07T07:10:30.029Z,13.48
2023-02-07T07:11:31.875Z,15.05
2023-02-07T07:12:34.400Z,17.17
2023-02-07T07:13:36.116Z,19.73
2023-02-07T07:14:37.790Z,20.58
2023-02-07T07:15:39.660Z,23.77
2023-02-07T07:16:41.429Z,19.88
2023-02-07T07:17:42.982Z,28.30
2023-02-07T07:18:44.664Z,13.82
2023-02-07T07:19:46.336Z,21.00
2023-02-07T07:20:53.683Z,21.33
2023-02-07T07:21:55.543Z,15.48
2023-02-07T07:22:57.231Z,14.68
2023-02-07T07:23:58.838Z,13.00
2023-02-07T07:25:00.376Z,12.30
2023-02-07T07:26:02.094Z,13.30
2023-02-07T07:27:03.769Z,13.88
2023-02-07T07:28:05.508Z,14.57
2023-02-07T07:29:08.425Z,16.42
2023-02-07T07:30:10.967Z,15.57
2023-02-07T07:31:13.690Z,13.55
2023-02-07T07:32:28.723Z,17.73
2023-02-07T07:33:35.096Z,19.15
2023-02-07T07:34:36.680Z,20.42
2023-02-07T07:35:38.647Z,21.20
2023-02-07T07:36:40.458Z,20.23
2023-02-07T07:37:42.102Z,19.77
2023-02-07T07:38:45.982Z,23.77
2023-02-07T07:39:49.275Z,24.17
2023-02-07T07:40:50.839Z,25.65
2023-02-07T07:41:52.467Z,27.08
2023-02-07T07:42:54.082Z,25.57
2023-02-07T07:43:55.921Z,26.00
2023-02-07T07:44:57.526Z,30.43
2023-02-07T07:46:00.175Z,27.63
2023-02-07T07:47:01.750Z,30.60
2023-02-07T07:48:03.580Z,32.57
2023-02-07T07:49:05.161Z,41.37
2023-02-07T07:50:07.723Z,37.30
2023-02-07T07:51:09.264Z,43.13
2023-02-07T07:52:10.839Z,50.67
2023-02-07T07:53:12.550Z,49.35
2023-02-07T07:54:14.353Z,46.50
2023-02-07T07:55:15.915Z,49.73
2023-02-07T07:56:17.541Z,54.33
2023-02-07T07:57:21.161Z,55.77
2023-02-07T07:58:25.117Z,50.67
2023-02-07T07:59:26.792Z,51.37
2023-02-07T08:00:28.500Z,42.53
2023-02-07T08:01:30.140Z,47.13
2023-02-07T08:02:31.789Z,46.70
2023-02-07T08:03:33.432Z,55.70
2023-02-07T08:04:35.058Z,62.03
2023-02-07T08:05:36.970Z,72.40
2023-02-07T08:06:38.664Z,55.03
2023-02-07T08:07:40.199Z,51.17
2023-02-07T08:08:41.789Z,48.80
2023-02-07T08:09:43.401Z,42.57
2023-02-07T08:10:44.971Z,45.83
2023-02-07T08:11:46.543Z,41.17
2023-02-07T08:12:48.168Z,33.43
2023-02-07T08:13:50.539Z,38.37
2023-02-07T08:14:52.114Z,29.40
2023-02-07T08:15:53.724Z,25.67
2023-02-07T08:16:55.341Z,28.37
2023-02-07T08:17:56.914Z,28.40
2023-02-07T08:18:58.504Z,26.97
2023-02-07T08:20:00.036Z,22.43
2023-02-07T08:21:01.761Z,23.87
2023-02-07T08:22:03.358Z,30.57
2023-02-07T08:23:04.964Z,27.77
2023-02-07T08:24:06.771Z,25.93
2023-02-07T08:25:08.970Z,21.90
2023-02-07T08:26:10.558Z,23.30
2023-02-07T08:27:12.173Z,22.53
2023-02-07T08:28:14.469Z,21.27
2023-02-07T08:29:16.210Z,24.00
2023-02-07T08:30:19.028Z,20.73
2023-02-07T08:31:20.771Z,20.93
2023-02-07T08:32:22.419Z,23.03
2023-02-07T08:33:24.232Z,25.17
2023-02-07T08:34:28.752Z,24.13
2023-02-07T08:35:30.315Z,23.53
2023-02-07T08:36:32.130Z,20.40
2023-02-07T08:37:33.722Z,20.30
2023-02-07T08:38:35.611Z,17.43
2023-02-07T08:39:37.428Z,21.50
2023-02-07T08:40:39.840Z,19.33
2023-02-07T08:41:41.620Z,19.83
2023-02-07T08:42:43.220Z,18.17
2023-02-07T08:43:44.788Z,21.93
2023-02-07T08:44:50.193Z,22.60
2023-02-07T08:45:51.878Z,25.87
2023-02-07T08:46:53.818Z,18.53
2023-02-07T08:47:55.331Z,17.20
2023-02-07T08:48:56.932Z,20.03
2023-02-07T08:49:58.459Z,16.90
2023-02-07T08:51:08.687Z,19.40
2023-02-07T08:52:13.614Z,15.17
2023-02-07T08:53:15.208Z,17.73
2023-02-07T08:54:16.746Z,19.37
2023-02-07T08:55:18.430Z,17.03
2023-02-07T08:56:20.000Z,16.30
2023-02-07T08:57:25.679Z,17.90
2023-02-07T08:58:28.066Z,19.17
2023-02-07T08:59:29.733Z,18.87
2023-02-07T09:00:31.420Z,12.63
2023-02-07T09:01:33.151Z,11.27
2023-02-07T09:02:35.041Z,12.27
2023-02-07T09:03:40.373Z,6.43
2023-02-07T09:04:43.340Z,10.67
2023-02-07T09:05:44.955Z,6.00
2023-02-07T09:06:46.717Z,5.33
2023-02-07T09:07:48.566Z,6.70
2023-02-07T09:08:50.202Z,4.90
2023-02-07T09:09:51.826Z,6.77
2023-02-07T09:10:54.235Z,5.93
2023-02-07T09:11:55.815Z,5.47
2023-02-07T09:12:57.603Z,5.07
2023-02-07T09:13:59.364Z,5.73
2023-02-07T09:15:01.058Z,4.93
2023-02-07T09:16:02.652Z,5.40
2023-02-07T09:17:04.531Z,5.03
2023-02-07T09:18:06.285Z,3.63
2023-02-07T09:19:07.893Z,3.13
2023-02-07T09:20:10.785Z,3.60
2023-02-07T09:21:12.390Z,5.80
2023-02-07T09:22:14.503Z,3.20
2023-02-07T09:23:19.461Z,3.53
2023-02-07T09:24:21.456Z,3.83
2023-02-07T09:25:23.204Z,3.07
2023-02-07T09:26:29.376Z,3.23
2023-02-07T09:27:30.914Z,3.50
2023-02-07T09:28:33.138Z,3.83
2023-02-07T09:29:34.855Z,4.33
2023-02-07T09:30:36.671Z,5.70
2023-02-07T09:31:38.364Z,3.40
2023-02-07T09:32:39.957Z,4.73
2023-02-07T09:33:42.183Z,4.53
2023-02-07T09:34:43.811Z,3.70
2023-02-07T09:35:46.819Z,4.43
2023-02-07T09:36:50.230Z,3.03
2023-02-07T09:37:55.431Z,3.73
2023-02-07T09:38:57.729Z,4.70
2023-02-07T09:39:59.330Z,3.57
2023-02-07T09:41:00.964Z,2.90
2023-02-07T09:42:33.911Z,3.63
2023-02-07T09:43:59.140Z,2.80
2023-02-07T09:45:11.922Z,2.83
2023-02-07T09:46:33.305Z,3.37
2023-02-07T09:47:39.175Z,4.43
2023-02-07T09:48:50.535Z,5.57
2023-02-07T09:50:10.788Z,3.00
2023-02-07T09:51:16.099Z,3.07
2023-02-07T09:52:26.898Z,2.97
2023-02-07T09:53:44.949Z,2.73
2023-02-07T09:54:53.941Z,3.47
2023-02-07T09:55:58.904Z,4.77
2023-02-07T09:57:06.878Z,3.33
2023-02-07T09:58:14.653Z,3.30
2023-02-07T09:59:36.433Z,2.80
2023-02-07T10:00:40.655Z,2.80
2023-02-07T10:01:50.284Z,2.63
2023-02-07T10:02:55.701Z,2.87
2023-02-07T10:04:12.970Z,1.90
2023-02-07T10:05:25.640Z,2.03
2023-02-07T10:06:28.217Z,3.63
2023-02-07T10:07:30.777Z,3.13
2023-02-07T10:08:40.968Z,1.70
2023-02-07T10:09:44.560Z,2.13
2023-02-07T10:11:21.106Z,2.03
2023-02-07T10:12:47.208Z,1.50
2023-02-07T10:14:00.559Z,2.97
2023-02-07T10:15:10.145Z,1.40
2023-02-07T10:16:17.460Z,2.00
2023-02-07T10:17:30.541Z,1.47
2023-02-07T10:18:56.292Z,2.37
2023-02-07T10:20:07.042Z,1.50
2023-02-07T10:21:40.744Z,4.40
2023-02-07T10:23:00.937Z,2.87
2023-02-07T10:24:21.690Z,1.67
2023-02-07T10:25:51.711Z,1.60
2023-02-07T10:26:58.904Z,3.77
2023-02-07T10:28:15.880Z,1.93
2023-02-07T10:29:32.186Z,1.80
2023-02-07T10:30:40.324Z,1.60
2023-02-07T10:31:50.929Z,2.03
2023-02-07T10:32:54.330Z,1.93
2023-02-07T10:35:22.178Z,4.83
2023-02-07T10:36:25.867Z,4.80
2023-02-07T10:37:31.703Z,5.87
2023-02-07T10:39:09.748Z,4.67
2023-02-07T10:40:23.019Z,3.13
2023-02-07T10:41:45.053Z,2.37
2023-02-07T10:42:52.399Z,3.30
2023-02-07T10:43:53.953Z,4.67
2023-02-07T10:44:55.540Z,3.63
2023-02-07T10:46:06.364Z,4.57
2023-02-07T10:47:15.375Z,4.07
2023-02-07T10:48:19.750Z,4.40
2023-02-07T10:49:27.743Z,4.73
2023-02-07T10:50:30.712Z,4.37
2023-02-07T10:51:45.922Z,5.03
2023-02-07T10:52:56.714Z,4.27
2023-02-07T10:54:10.580Z,4.07
2023-02-07T10:55:14.023Z,4.03
2023-02-07T10:56:22.655Z,4.30
2023-02-07T10:57:25.905Z,6.20
2023-02-07T10:58:39.089Z,4.93
2023-02-07T10:59:46.153Z,5.13
2023-02-07T11:00:49.925Z,5.53
2023-02-07T11:01:54.827Z,5.30
2023-02-07T11:03:07.351Z,5.77
2023-02-07T11:04:34.641Z,4.63
2023-02-07T11:05:39.294Z,4.23
2023-02-07T11:06:40.979Z,5.90
2023-02-07T11:07:57.229Z,3.10
2023-02-07T11:09:25.461Z,4.50
2023-02-07T11:10:33.340Z,3.00
2023-02-07T11:11:38.239Z,3.33
2023-02-07T11:12:49.920Z,4.77
2023-02-07T11:13:53.419Z,4.23
2023-02-07T11:15:05.089Z,3.40
2023-02-07T11:16:08.800Z,4.40
2023-02-07T11:17:21.690Z,4.37
2023-02-07T11:18:45.631Z,4.80
2023-02-07T11:19:48.026Z,3.93
2023-02-07T11:20:52.599Z,3.47
2023-02-07T11:22:21.701Z,3.37
2023-02-07T11:23:24.257Z,4.63
2023-02-07T11:24:29.472Z,4.00
2023-02-07T11:25:44.160Z,2.60
2023-02-07T11:26:56.735Z,2.37
2023-02-07T11:27:59.375Z,3.37
2023-02-07T11:29:27.354Z,2.53
2023-02-07T11:30:33.785Z,2.40
2023-02-07T11:31:37.959Z,2.20
2023-02-07T11:32:39.803Z,3.70
2023-02-07T11:33:41.887Z,2.23
2023-02-07T11:34:48.931Z,5.57
2023-02-07T11:36:11.568Z,2.53
2023-02-07T11:37:28.375Z,2.50
2023-02-07T11:38:30.897Z,2.47
2023-02-07T11:39:32.456Z,2.80
2023-02-07T11:40:39.566Z,3.03
2023-02-07T11:41:41.157Z,3.43
2023-02-07T11:42:43.521Z,3.63
2023-02-07T11:43:59.596Z,3.93
2023-02-07T11:45:13.512Z,2.63
2023-02-07T11:46:15.129Z,2.53
2023-02-07T11:47:24.822Z,3.87
2023-02-07T11:48:29.810Z,3.73
2023-02-07T11:49:37.520Z,4.33
2023-02-07T11:50:41.802Z,4.13
2023-02-07T11:51:44.226Z,4.47
2023-02-07T11:52:55.725Z,4.57
2023-02-07T11:54:01.350Z,5.27
2023-02-07T11:55:09.123Z,3.40
2023-02-07T11:56:29.492Z,3.67
2023-02-07T11:57:33.614Z,3.77
2023-02-07T11:58:39.020Z,3.13
2023-02-07T12:00:08.682Z,2.80
2023-02-07T12:01:22.612Z,3.13
2023-02-07T12:02:26.250Z,3.33
2023-02-07T12:03:32.552Z,3.13
2023-02-07T12:04:37.758Z,2.83
2023-02-07T12:05:45.317Z,4.13
2023-02-07T12:06:54.386Z,3.27
2023-02-07T12:08:13.175Z,4.60
2023-02-07T12:09:32.052Z,2.93
2023-02-07T12:10:38.151Z,3.53
2023-02-07T12:11:42.462Z,3.40
2023-02-07T12:13:05.113Z,3.27
2023-02-07T12:14:36.264Z,2.70
2023-02-07T12:15:42.825Z,3.20
2023-02-07T12:16:51.964Z,3.27
2023-02-07T12:18:03.848Z,3.70
2023-02-07T12:19:30.871Z,3.00
2023-02-07T12:20:37.548Z,4.07
2023-02-07T12:22:04.908Z,4.43
2023-02-07T12:23:41.266Z,4.20
2023-02-07T12:24:56.785Z,3.53
2023-02-07T12:26:11.820Z,3.90
2023-02-07T12:27:13.341Z,3.77
2023-02-07T12:28:40.534Z,4.47
2023-02-07T12:29:50.914Z,5.53
2023-02-07T12:30:55.322Z,4.93
2023-02-07T12:31:57.084Z,4.67
2023-02-07T12:32:58.746Z,3.70
2023-02-07T12:34:12.000Z,3.80
2023-02-07T12:35:26.544Z,4.43
2023-02-07T12:36:36.422Z,6.03
2023-02-07T12:38:11.760Z,5.33
2023-02-07T12:39:42.458Z,4.90
2023-02-07T12:41:12.771Z,5.43
2023-02-07T12:42:32.045Z,4.20
2023-02-07T12:43:38.154Z,4.73
2023-02-07T12:44:50.859Z,4.60
2023-02-07T12:46:06.862Z,4.47
2023-02-07T12:47:22.355Z,4.43
2023-02-07T12:48:46.958Z,4.17
2023-02-07T12:49:54.514Z,4.03
2023-02-07T12:51:15.511Z,4.50
2023-02-07T12:52:51.902Z,2.90
2023-02-07T12:54:11.624Z,4.57
2023-02-07T12:55:47.306Z,4.40
2023-02-07T12:57:00.819Z,3.97
2023-02-07T12:58:27.351Z,5.53
2023-02-07T12:59:47.407Z,4.83
2023-02-07T13:00:51.763Z,4.77
2023-02-07T13:02:18.537Z,4.43
2023-02-07T13:03:36.915Z,7.17
2023-02-07T13:05:03.088Z,5.17
2023-02-07T13:06:18.471Z,4.97
2023-02-07T13:07:42.031Z,4.90
2023-02-07T13:09:01.521Z,8.27
2023-02-07T13:12:01.513Z,7.20
2023-02-07T13:13:21.055Z,7.07
2023-02-07T13:14:22.708Z,9.63
2023-02-07T13:15:39.997Z,5.03
2023-02-07T13:16:45.819Z,5.97
2023-02-07T13:18:09.312Z,4.03
2023-02-07T13:19:17.152Z,6.30
2023-02-07T13:20:41.854Z,3.30
2023-02-07T13:21:54.120Z,3.97
2023-02-07T13:23:03.566Z,3.73
2023-02-07T13:24:07.882Z,4.20
2023-02-07T13:25:35.742Z,4.10
2023-02-07T13:26:37.999Z,3.70
2023-02-07T13:27:42.080Z,3.90
2023-02-07T13:28:50.448Z,4.03
2023-02-07T13:29:52.798Z,6.37
2023-02-07T13:30:55.109Z,4.27
2023-02-07T13:32:01.604Z,3.83
2023-02-07T13:33:18.396Z,3.73
2023-02-07T13:34:24.422Z,4.40
2023-02-07T13:35:30.456Z,5.47
2023-02-07T13:36:41.256Z,4.57
2023-02-07T13:38:15.094Z,4.53
2023-02-07T13:39:19.957Z,5.50
2023-02-07T13:40:53.829Z,5.80
2023-02-07T13:42:16.984Z,5.27
2023-02-07T13:43:36.461Z,8.10
2023-02-07T13:45:13.177Z,4.80
2023-02-07T13:46:56.791Z,5.57
2023-02-07T13:48:21.882Z,5.07
2023-02-07T13:49:29.602Z,4.03
2023-02-07T13:50:34.405Z,4.37
2023-02-07T13:51:51.095Z,3.47
2023-02-07T13:52:57.620Z,4.30
2023-02-07T13:54:18.954Z,4.00
2023-02-07T13:55:26.423Z,5.70
2023-02-07T13:56:52.067Z,5.73
2023-02-07T13:58:12.396Z,4.93
2023-02-07T13:59:40.066Z,3.77
2023-02-07T14:00:47.452Z,3.80
2023-02-07T14:01:54.484Z,4.23
2023-02-07T14:02:58.582Z,5.93
2023-02-07T14:04:02.208Z,6.00
2023-02-07T14:05:18.774Z,4.77
2023-02-07T14:06:28.027Z,5.43
2023-02-07T14:07:34.388Z,4.40
2023-02-07T14:08:35.996Z,8.57
2023-02-07T14:09:42.900Z,5.73
2023-02-07T14:10:49.262Z,4.47
2023-02-07T14:12:05.006Z,4.37
2023-02-07T14:13:06.942Z,5.60
2023-02-07T14:14:16.888Z,5.30
2023-02-07T14:15:38.929Z,6.50
2023-02-07T14:16:54.095Z,4.97
2023-02-07T14:17:57.226Z,5.17
2023-02-07T14:18:58.801Z,4.70
2023-02-07T14:20:02.315Z,4.67
2023-02-07T14:21:11.690Z,4.03
2023-02-07T14:22:13.273Z,4.53
2023-02-07T14:23:19.557Z,4.83
2023-02-07T14:24:31.040Z,4.57
2023-02-07T14:25:44.646Z,4.13
2023-02-07T14:26:49.060Z,5.00
2023-02-07T14:27:50.585Z,3.67
2023-02-07T14:28:52.205Z,4.57
2023-02-07T14:29:56.940Z,4.37
2023-02-07T14:31:01.504Z,6.50
2023-02-07T14:32:28.704Z,3.83
2023-02-07T14:33:34.357Z,3.60
2023-02-07T14:34:57.432Z,3.67
2023-02-07T14:36:25.675Z,4.77
2023-02-07T14:37:56.607Z,4.90
2023-02-07T14:39:06.899Z,6.57
2023-02-07T14:40:31.673Z,5.03
2023-02-07T14:41:36.605Z,4.00
2023-02-07T14:42:38.942Z,4.37